createdAt,value
2023-02-18T00:03:09.836Z,5.43
2023-02-18T00:07:22.835Z,5.95
2023-02-18T00:11:37.335Z,5.98
2023-02-18T00:15:49.759Z,5.79
2023-02-18T00:20:03.612Z,5.22
2023-02-18T00:24:17.366Z,4.88
2023-02-18T00:28:31.292Z,5.26
2023-02-18T00:32:45.541Z,6.03
2023-02-18T00:36:58.096Z,5.75
2023-02-18T00:41:10.621Z,5.92
2023-02-18T00:45:23.026Z,6.10
2023-02-18T00:49:36.011Z,5.94
2023-02-18T00:53:49.915Z,6.22
2023-02-18T00:58:02.353Z,6.23
2023-02-18T01:02:14.806Z,6.25
2023-02-18T01:06:30.073Z,6.24
2023-02-18T01:10:45.185Z,6.26
2023-02-18T01:14:57.552Z,6.20
2023-02-18T01:19:09.862Z,6.02
2023-02-18T01:23:24.334Z,6.12
2023-02-18T01:27:37.714Z,5.88
2023-02-18T01:31:50.300Z,6.02
2023-02-18T01:36:03.272Z,6.08
2023-02-18T01:40:18.277Z,6.05
2023-02-18T01:44:30.974Z,5.82
2023-02-18T01:48:45.513Z,5.77
2023-02-18T01:52:58.736Z,5.80
2023-02-18T01:57:14.579Z,5.72
2023-02-18T02:01:28.033Z,5.60
2023-02-18T02:05:40.494Z,6.00
2023-02-18T02:09:56.735Z,5.86
2023-02-18T02:14:40.775Z,5.64
2023-02-18T02:19:06.977Z,5.52
2023-02-18T02:23:19.413Z,5.42
2023-02-18T02:28:07.037Z,5.94
2023-02-18T02:33:07.730Z,6.15
2023-02-18T02:37:27.779Z,6.08
2023-02-18T02:41:40.427Z,6.14
2023-02-18T02:46:24.167Z,5.82
2023-02-18T02:50:45.239Z,5.85
2023-02-18T02:54:57.661Z,5.91
2023-02-18T02:59:21.053Z,5.74
2023-02-18T03:03:53.061Z,5.75
2023-02-18T03:08:11.622Z,5.72
2023-02-18T03:12:46.917Z,5.80
2023-02-18T03:17:13.258Z,6.04
2023-02-18T03:21:33.684Z,6.19
2023-02-18T03:25:49.170Z,6.16
2023-02-18T03:30:14.948Z,6.14
2023-02-18T03:34:31.721Z,6.13
2023-02-18T03:39:07.998Z,6.13
2023-02-18T03:43:20.410Z,6.17
2023-02-18T03:47:33.781Z,6.16
2023-02-18T03:51:46.560Z,6.04
2023-02-18T03:55:58.938Z,6.19
2023-02-18T04:00:11.984Z,6.29
2023-02-18T04:04:27.747Z,6.19
2023-02-18T04:08:40.636Z,6.17
2023-02-18T04:12:53.069Z,6.23
2023-02-18T04:17:06.672Z,6.17
2023-02-18T04:21:19.009Z,6.23
2023-02-18T04:25:32.046Z,6.31
2023-02-18T04:29:44.487Z,6.44
2023-02-18T04:33:56.901Z,6.61
2023-02-18T04:38:10.839Z,6.40
2023-02-18T04:42:23.644Z,5.98
2023-02-18T04:46:36.457Z,6.07
2023-02-18T04:50:48.858Z,6.20
2023-02-18T04:55:01.273Z,6.08
2023-02-18T04:59:13.551Z,5.86
2023-02-18T05:03:25.908Z,5.67
2023-02-18T05:07:38.321Z,5.54
2023-02-18T05:11:51.734Z,5.59
2023-02-18T05:16:04.301Z,5.70
2023-02-18T05:20:16.815Z,5.80
2023-02-18T05:24:29.211Z,5.93
2023-02-18T05:28:41.519Z,5.97
2023-02-18T05:32:53.868Z,5.99
2023-02-18T05:37:06.208Z,5.98
2023-02-18T05:41:18.557Z,6.08
2023-02-18T05:45:30.917Z,6.12
2023-02-18T05:49:44.122Z,6.26
2023-02-18T05:53:56.629Z,6.56
2023-02-18T05:58:09.075Z,6.69
2023-02-18T06:02:21.609Z,7.00
2023-02-18T06:06:34.472Z,7.04
2023-02-18T06:10:47.372Z,7.07
2023-02-18T06:14:59.621Z,7.17
2023-02-18T06:19:12.054Z,7.28
2023-02-18T06:23:24.346Z,7.36
2023-02-18T06:27:38.886Z,7.39
2023-02-18T06:31:51.437Z,7.66
2023-02-18T06:36:09.773Z,7.74
2023-02-18T06:40:22.353Z,7.95
2023-02-18T06:44:36.391Z,8.19
2023-02-18T06:48:50.104Z,8.23
2023-02-18T06:53:02.426Z,8.17
2023-02-18T06:57:14.725Z,8.45
2023-02-18T07:01:29.372Z,8.65
2023-02-18T07:05:43.242Z,8.81
2023-02-18T07:09:55.651Z,8.99
2023-02-18T07:14:08.434Z,9.24
2023-02-18T07:18:20.802Z,9.29
2023-02-18T07:22:33.570Z,9.22
2023-02-18T07:26:45.879Z,9.48
2023-02-18T07:30:58.253Z,9.70
2023-02-18T07:35:14.908Z,9.79
2023-02-18T07:39:27.233Z,9.83
2023-02-18T07:43:39.586Z,10.24
2023-02-18T07:47:51.856Z,10.55
2023-02-18T07:52:05.499Z,10.92
2023-02-18T07:56:18.828Z,11.49
2023-02-18T08:00:31.041Z,11.28
2023-02-18T08:04:43.332Z,11.68
2023-02-18T08:08:55.791Z,12.46
2023-02-18T08:13:08.517Z,11.50
2023-02-18T08:17:20.669Z,10.40
2023-02-18T08:21:33.043Z,9.78
2023-02-18T08:25:52.840Z,9.93
2023-02-18T08:30:05.889Z,10.36
2023-02-18T08:34:18.405Z,9.88
2023-02-18T08:38:30.610Z,9.65
2023-02-18T08:42:42.888Z,9.63
2023-02-18T08:46:56.689Z,9.86
2023-02-18T08:51:13.521Z,11.18
2023-02-18T08:55:27.414Z,11.11
2023-02-18T08:59:39.920Z,11.00
2023-02-18T09:03:52.336Z,10.91
2023-02-18T09:08:04.808Z,10.88
2023-02-18T09:12:17.082Z,11.37
2023-02-18T09:16:30.188Z,11.93
2023-02-18T09:20:42.557Z,12.27
2023-02-18T09:24:54.947Z,13.08
2023-02-18T09:29:07.318Z,13.13
2023-02-18T09:33:20.224Z,12.80
2023-02-18T09:37:32.603Z,13.89
2023-02-18T09:42:07.580Z,14.26
2023-02-18T09:46:24.557Z,13.96
2023-02-18T09:50:36.886Z,13.89
2023-02-18T09:54:49.586Z,14.50
2023-02-18T09:59:10.185Z,14.50
2023-02-18T10:03:25.965Z,14.72
2023-02-18T10:07:41.233Z,15.26
2023-02-18T10:11:58.737Z,15.11
2023-02-18T10:16:18.243Z,15.21
2023-02-18T10:20:33.559Z,16.02
2023-02-18T10:24:52.986Z,16.31
2023-02-18T10:29:15.293Z,16.97
2023-02-18T10:34:00.961Z,17.86
2023-02-18T10:38:38.154Z,17.46
2023-02-18T10:42:56.367Z,16.62
2023-02-18T10:47:17.815Z,16.30
2023-02-18T10:51:33.676Z,16.41
2023-02-18T10:55:49.531Z,15.55
2023-02-18T11:00:12.979Z,15.40
2023-02-18T11:04:40.487Z,14.74
2023-02-18T11:08:55.367Z,15.04
2023-02-18T11:13:09.778Z,16.29
2023-02-18T11:17:28.389Z,16.21
2023-02-18T11:21:40.794Z,16.04
2023-02-18T11:26:05.197Z,17.01
2023-02-18T11:30:26.247Z,15.84
2023-02-18T11:34:44.140Z,15.86
2023-02-18T11:39:13.582Z,16.07
2023-02-18T11:43:31.227Z,16.72
2023-02-18T11:47:43.861Z,16.30
2023-02-18T11:52:04.698Z,16.01
2023-02-18T11:56:19.559Z,16.41
2023-02-18T12:00:43.842Z,17.20
2023-02-18T12:05:17.461Z,16.29
2023-02-18T12:09:39.548Z,16.09
2023-02-18T12:13:57.413Z,15.83
2023-02-18T12:18:27.517Z,15.46
2023-02-18T12:23:00.267Z,16.29
2023-02-18T12:27:25.067Z,15.99
2023-02-18T12:32:02.025Z,16.52
2023-02-18T12:36:30.898Z,16.32
2023-02-18T12:41:05.889Z,15.26
2023-02-18T12:45:36.238Z,15.16
2023-02-18T12:50:19.816Z,15.65
2023-02-18T12:54:52.316Z,16.00
2023-02-18T12:59:35.111Z,15.32
2023-02-18T13:03:56.650Z,15.61
2023-02-18T13:08:36.641Z,15.30
2023-02-18T13:12:58.038Z,14.98
2023-02-18T13:17:12.076Z,15.34
2023-02-18T13:21:24.774Z,14.86
2023-02-18T13:25:39.992Z,14.72
2023-02-18T13:29:52.352Z,14.64
2023-02-18T13:34:27.553Z,14.85
2023-02-18T13:39:08.340Z,14.44
2023-02-18T13:43:29.502Z,14.43
2023-02-18T13:48:00.924Z,13.71
2023-02-18T13:52:20.510Z,14.07
2023-02-18T13:56:40.772Z,13.44
2023-02-18T14:01:18.243Z,13.87
2023-02-18T14:05:46.656Z,13.50
2023-02-18T14:10:01.109Z,13.33
2023-02-18T14:14:31.900Z,13.16
2023-02-18T14:18:44.155Z,13.48
2023-02-18T14:22:56.566Z,14.01
2023-02-18T14:27:17.116Z,13.68
2023-02-18T14:31:58.127Z,13.59
2023-02-18T14:36:16.577Z,13.54
2023-02-18T14:40:45.084Z,13.76
2023-02-18T14:45:15.819Z,13.58
2023-02-18T14:49:39.500Z,13.61
2023-02-18T14:53:52.914Z,13.48
2023-02-18T14:58:37.682Z,13.68
2023-02-18T15:02:52.739Z,13.56
2023-02-18T15:07:10.473Z,13.48
2023-02-18T15:11:27.469Z,13.65
2023-02-18T15:15:39.930Z,13.58
2023-02-18T15:19:56.056Z,13.64
2023-02-18T15:24:37.842Z,13.50
2023-02-18T15:28:59.917Z,12.68
2023-02-18T15:33:15.373Z,13.13
2023-02-18T15:37:30.186Z,13.33
2023-02-18T15:41:42.603Z,13.09
2023-02-18T15:45:58.207Z,13.02
2023-02-18T15:50:27.856Z,12.99
2023-02-18T15:54:42.208Z,12.75
2023-02-18T15:59:18.280Z,12.80
2023-02-18T16:03:37.724Z,12.68
2023-02-18T16:07:53.483Z,12.25
2023-02-18T16:12:33.628Z,12.03
2023-02-18T16:17:10.851Z,12.13
2023-02-18T16:21:38.242Z,11.99
2023-02-18T16:25:50.897Z,11.46
2023-02-18T16:30:16.637Z,11.47
2023-02-18T16:34:29.087Z,11.33
2023-02-18T16:38:41.635Z,11.13
2023-02-18T16:42:55.188Z,11.36
2023-02-18T16:47:09.409Z,11.20
2023-02-18T16:51:26.629Z,10.43
2023-02-18T16:55:39.055Z,10.15
2023-02-18T16:59:51.428Z,10.60
2023-02-18T17:04:06.302Z,10.42
2023-02-18T17:08:19.438Z,10.18
2023-02-18T17:12:32.066Z,10.44
2023-02-18T17:16:48.705Z,10.45
2023-02-18T17:21:01.295Z,10.11
2023-02-18T17:25:21.938Z,10.17
2023-02-18T17:29:34.369Z,10.38
2023-02-18T17:33:47.887Z,10.38
2023-02-18T17:38:01.573Z,10.00
2023-02-18T17:42:14.977Z,10.09
2023-02-18T17:46:27.379Z,10.14
2023-02-18T17:50:39.812Z,9.58
2023-02-18T17:54:52.145Z,9.40
2023-02-18T17:59:04.462Z,9.77
2023-02-18T18:03:17.743Z,9.63
2023-02-18T18:07:31.551Z,9.15
2023-02-18T18:11:45.743Z,8.99
2023-02-18T18:15:59.102Z,9.55
2023-02-18T18:20:11.853Z,9.35
2023-02-18T18:24:24.281Z,8.91
2023-02-18T18:28:37.964Z,8.74
2023-02-18T18:32:50.609Z,8.78
2023-02-18T18:37:03.092Z,9.27
2023-02-18T18:41:21.080Z,9.68
2023-02-18T18:45:37.612Z,9.23
2023-02-18T18:49:50.118Z,9.10
2023-02-18T18:54:04.241Z,9.12
2023-02-18T18:58:21.097Z,9.12
2023-02-18T19:02:33.516Z,9.06
2023-02-18T19:06:45.835Z,9.00
2023-02-18T19:10:58.573Z,8.98
2023-02-18T19:15:15.182Z,9.07
2023-02-18T19:19:27.813Z,8.91
2023-02-18T19:23:40.396Z,9.02
2023-02-18T19:27:52.820Z,8.88
2023-02-18T19:32:05.311Z,9.03
2023-02-18T19:36:18.309Z,8.67
2023-02-18T19:40:31.549Z,8.58
2023-02-18T19:44:43.853Z,8.70
2023-02-18T19:48:56.384Z,8.52
2023-02-18T19:53:09.660Z,8.50
2023-02-18T19:57:22.405Z,8.75
2023-02-18T20:01:34.935Z,8.57
2023-02-18T20:05:47.369Z,8.23
2023-02-18T20:09:59.706Z,8.29
2023-02-18T20:14:12.121Z,8.05
2023-02-18T20:18:24.540Z,8.34
2023-02-18T20:22:37.006Z,8.21
2023-02-18T20:26:49.408Z,7.72
2023-02-18T20:31:13.171Z,8.19
2023-02-18T20:35:26.333Z,7.91
2023-02-18T20:39:39.125Z,7.83
2023-02-18T20:43:51.546Z,7.48
2023-02-18T20:48:04.105Z,7.75
2023-02-18T20:52:16.655Z,8.06
2023-02-18T20:56:29.136Z,8.28
2023-02-18T21:00:41.486Z,7.99
2023-02-18T21:04:53.875Z,7.95
2023-02-18T21:09:07.726Z,7.48
2023-02-18T21:13:21.136Z,7.61
2023-02-18T21:17:33.539Z,7.53
2023-02-18T21:21:47.814Z,6.91
2023-02-18T21:26:14.909Z,6.58
2023-02-18T21:30:28.346Z,7.39
2023-02-18T21:34:41.640Z,7.35
2023-02-18T21:38:56.204Z,7.47
2023-02-18T21:43:10.641Z,7.48
2023-02-18T21:47:30.486Z,7.59
2023-02-18T21:52:08.729Z,7.33
2023-02-18T21:56:21.168Z,7.04
2023-02-18T22:00:33.673Z,6.59
2023-02-18T22:04:49.937Z,6.39
2023-02-18T22:09:04.568Z,6.86
2023-02-18T22:13:17.067Z,7.05
2023-02-18T22:17:30.101Z,6.58
2023-02-18T22:21:43.250Z,6.62
2023-02-18T22:25:55.710Z,6.32
2023-02-18T22:30:08.643Z,6.82
2023-02-18T22:34:22.772Z,6.64
2023-02-18T22:38:36.963Z,6.60
2023-02-18T22:42:49.337Z,6.50
2023-02-18T22:47:01.794Z,6.49
2023-02-18T22:51:20.626Z,7.11
2023-02-18T22:55:33.012Z,7.30
2023-02-18T22:59:45.327Z,7.10
2023-02-18T23:04:03.985Z,6.99
2023-02-18T23:08:16.519Z,7.04
2023-02-18T23:12:28.939Z,6.94
2023-02-18T23:17:00.541Z,6.74
2023-02-18T23:21:18.050Z,6.99
2023-02-18T23:25:32.684Z,6.49
2023-02-18T23:29:46.131Z,6.36
2023-02-18T23:34:01.216Z,5.99
2023-02-18T23:38:13.627Z,5.82
2023-02-18T23:42:25.931Z,5.68
2023-02-18T23:46:38.670Z,5.55
2023-02-18T23:50:50.939Z,5.48
2023-02-18T23:55:04.770Z,5.39
2023-02-18T23:59:17.534Z,5.47
